Time;durP1;ratioP1;P1;durP2;ratioP2;P2;SDS_P1;SDS_P2;PMS_P1;PMS_P2;Temp;Humidity;BMP_temperature;BMP_pressure;BME280_temperature;BME280_humidity;BME280_pressure;Samples;Min_cycle;Max_cycle;Signal;HPM_P1;HPM_P2
2021/05/14 00:01:10;;;;;;;12.02;2.60;;;;;;;;;;5005213;28;20034;-74
2021/05/14 00:03:36;;;;;;;5.30;2.20;;;;;;;;;;5012882;28;20164;-74
2021/05/14 00:06:02;;;;;;;5.05;2.10;;;;;;;;;;5003298;28;20084;-74
2021/05/14 00:08:28;;;;;;;4.22;2.25;;;;;;;;;;5012493;28;20390;-73
2021/05/14 00:10:54;;;;;;;7.80;2.20;;;;;;;;;;5014331;28;20053;-73
2021/05/14 00:13:21;;;;;;;4.10;2.13;;;;;;;;;;5002283;28;20088;-73
2021/05/14 00:15:47;;;;;;;7.13;2.40;;;;;;;;;;5012423;28;20116;-73
2021/05/14 00:18:13;;;;;;;5.30;2.13;;;;;;;;;;5010777;28;20028;-73
2021/05/14 00:20:41;;;;;;;4.93;2.30;;;;;;;;;;5014730;28;20029;-73
2021/05/14 00:23:08;;;;;;;7.82;2.58;;;;;;;;;;5001376;28;20022;-73
2021/05/14 00:25:34;;;;;;;6.78;2.58;;;;;;;;;;4999048;28;20158;-73
2021/05/14 00:28:00;;;;;;;5.53;2.40;;;;;;;;;;5008521;28;20113;-74
2021/05/14 00:30:26;;;;;;;6.63;2.33;;;;;;;;;;5004999;28;20030;-74
2021/05/14 00:32:52;;;;;;;5.72;2.75;;;;;;;;;;5003733;28;20036;-73
2021/05/14 00:35:19;;;;;;;4.28;2.40;;;;;;;;;;4998921;28;20070;-73
2021/05/14 00:37:45;;;;;;;5.88;2.42;;;;;;;;;;5009836;28;20030;-73
2021/05/14 00:40:11;;;;;;;7.88;2.35;;;;;;;;;;4999995;28;20569;-73
2021/05/14 00:42:37;;;;;;;4.88;2.08;;;;;;;;;;5002227;28;20054;-73
2021/05/14 00:45:04;;;;;;;5.60;2.30;;;;;;;;;;4980224;28;20035;-74
2021/05/14 00:47:30;;;;;;;4.45;2.08;;;;;;;;;;4986547;28;20034;-73
2021/05/14 00:49:56;;;;;;;4.63;1.80;;;;;;;;;;4982805;28;20078;-73
2021/05/14 00:52:23;;;;;;;5.95;2.10;;;;;;;;;;4992281;28;20052;-73
2021/05/14 00:54:50;;;;;;;4.68;2.33;;;;;;;;;;4990509;28;20018;-73
2021/05/14 00:57:18;;;;;;;6.07;2.10;;;;;;;;;;4990578;28;20465;-73
2021/05/14 00:59:47;;;;;;;5.97;2.08;;;;;;;;;;4988764;28;20058;-73
2021/05/14 01:02:14;;;;;;;4.15;2.00;;;;;;;;;;4989172;28;20041;-73
2021/05/14 01:04:42;;;;;;;3.00;1.67;;;;;;;;;;4992286;28;20038;-73
2021/05/14 01:07:08;;;;;;;5.18;1.90;;;;;;;;;;4990263;28;20138;-73
2021/05/14 01:09:34;;;;;;;3.40;1.70;;;;;;;;;;4990373;28;20026;-73
2021/05/14 01:12:00;;;;;;;5.03;2.05;;;;;;;;;;4991525;28;20038;-73
2021/05/14 01:14:29;;;;;;;4.78;1.70;;;;;;;;;;4990893;28;20026;-74
2021/05/14 01:16:55;;;;;;;2.53;1.83;;;;;;;;;;4984363;28;20045;-73
2021/05/14 01:19:21;;;;;;;7.97;2.47;;;;;;;;;;4978759;28;20546;-73
2021/05/14 01:21:47;;;;;;;4.78;1.98;;;;;;;;;;4983024;28;20480;-73
2021/05/14 01:24:13;;;;;;;4.32;2.10;;;;;;;;;;4981051;28;20026;-73
2021/05/14 01:26:42;;;;;;;4.05;1.73;;;;;;;;;;4987026;28;20031;-73
2021/05/14 01:29:09;;;;;;;6.03;2.10;;;;;;;;;;5005772;28;20064;-74
2021/05/14 01:31:36;;;;;;;7.00;2.03;;;;;;;;;;4988431;28;20030;-73
2021/05/14 01:34:04;;;;;;;4.05;1.98;;;;;;;;;;4992620;28;20415;-72
2021/05/14 01:36:30;;;;;;;4.35;2.00;;;;;;;;;;4996036;28;20045;-73
2021/05/14 01:38:56;;;;;;;6.30;1.98;;;;;;;;;;4985599;28;20551;-73
2021/05/14 01:41:22;;;;;;;4.53;2.10;;;;;;;;;;4989265;28;20480;-73
2021/05/14 01:43:48;;;;;;;8.00;1.92;;;;;;;;;;4985082;28;20451;-73
2021/05/14 01:46:14;;;;;;;3.70;2.10;;;;;;;;;;4985001;28;20027;-73
2021/05/14 01:48:41;;;;;;;4.93;2.20;;;;;;;;;;4992944;28;20434;-73
2021/05/14 01:51:14;;;;;;;5.47;2.10;;;;;;;;;;4991560;28;20030;-73
2021/05/14 01:53:43;;;;;;;7.03;2.00;;;;;;;;;;4986509;28;20500;-72
2021/05/14 01:56:09;;;;;;;3.60;2.00;;;;;;;;;;4992917;28;20078;-74
2021/05/14 01:58:35;;;;;;;6.22;2.08;;;;;;;;;;4992291;28;20411;-74
2021/05/14 02:01:01;;;;;;;3.95;2.28;;;;;;;;;;4988441;28;20489;-72
2021/05/14 02:03:27;;;;;;;5.43;2.22;;;;;;;;;;4987400;28;20396;-72
2021/05/14 02:05:57;;;;;;;4.72;2.22;;;;;;;;;;4992450;28;20027;-73
2021/05/14 02:08:23;;;;;;;6.57;2.15;;;;;;;;;;4990460;28;20022;-73
2021/05/14 02:10:50;;;;;;;4.40;2.05;;;;;;;;;;4984646;28;20411;-73
2021/05/14 02:13:16;;;;;;;5.28;2.17;;;;;;;;;;4983613;28;20382;-73
2021/05/14 02:15:42;;;;;;;3.50;2.10;;;;;;;;;;4981271;28;20042;-73
2021/05/14 02:18:08;;;;;;;4.22;2.30;;;;;;;;;;4989413;28;20018;-73
2021/05/14 02:20:34;;;;;;;6.00;1.88;;;;;;;;;;4999156;28;20035;-73
2021/05/14 02:23:02;;;;;;;4.43;1.98;;;;;;;;;;4984167;28;20066;-73
2021/05/14 02:25:29;;;;;;;6.50;2.00;;;;;;;;;;4989662;28;20031;-73
2021/05/14 02:27:55;;;;;;;4.53;2.13;;;;;;;;;;4995554;28;20559;-73
2021/05/14 02:30:21;;;;;;;5.47;2.20;;;;;;;;;;4995284;28;20427;-74
2021/05/14 02:32:48;;;;;;;4.65;2.13;;;;;;;;;;4994576;28;20041;-73
2021/05/14 02:35:14;;;;;;;4.53;2.22;;;;;;;;;;4993905;28;20034;-72
2021/05/14 02:37:40;;;;;;;6.03;2.30;;;;;;;;;;4987790;28;20126;-73
2021/05/14 02:40:07;;;;;;;6.28;2.45;;;;;;;;;;4990037;28;20487;-73
2021/05/14 02:42:33;;;;;;;4.10;2.13;;;;;;;;;;4988038;28;20082;-73
2021/05/14 02:44:59;;;;;;;9.20;2.55;;;;;;;;;;4993047;28;20542;-73
2021/05/14 02:47:25;;;;;;;7.75;2.53;;;;;;;;;;4993170;28;20026;-72
2021/05/14 02:49:51;;;;;;;5.45;2.38;;;;;;;;;;4994714;28;20022;-72
2021/05/14 02:52:17;;;;;;;5.38;2.75;;;;;;;;;;4987124;28;20431;-73
2021/05/14 02:54:43;;;;;;;6.20;2.40;;;;;;;;;;4996322;28;20029;-73
2021/05/14 02:57:09;;;;;;;5.97;2.15;;;;;;;;;;4979577;28;20042;-72
2021/05/14 02:59:35;;;;;;;6.97;2.00;;;;;;;;;;4993716;28;20058;-74
2021/05/14 03:02:01;;;;;;;4.80;2.25;;;;;;;;;;4996114;28;20407;-73
2021/05/14 03:04:28;;;;;;;3.78;2.00;;;;;;;;;;4994727;28;20512;-73
2021/05/14 03:06:54;;;;;;;6.55;2.20;;;;;;;;;;4986399;28;20078;-73
2021/05/14 03:09:20;;;;;;;5.88;2.15;;;;;;;;;;4993849;28;20030;-73
2021/05/14 03:11:46;;;;;;;6.63;2.22;;;;;;;;;;4996128;28;20439;-73
2021/05/14 03:14:12;;;;;;;8.70;2.25;;;;;;;;;;4995273;28;20035;-73
2021/05/14 03:16:38;;;;;;;8.43;2.20;;;;;;;;;;4982843;28;20093;-73
2021/05/14 03:19:06;;;;;;;6.45;2.20;;;;;;;;;;4982503;28;20027;-73
2021/05/14 03:21:32;;;;;;;7.47;2.13;;;;;;;;;;4982513;28;20146;-73
2021/05/14 03:23:59;;;;;;;7.45;2.50;;;;;;;;;;4995566;28;20041;-73
2021/05/14 03:26:26;;;;;;;6.82;2.35;;;;;;;;;;4994871;28;20029;-73
2021/05/14 03:28:52;;;;;;;7.03;2.38;;;;;;;;;;4989044;28;20022;-73
2021/05/14 03:31:18;;;;;;;8.90;2.20;;;;;;;;;;4980434;28;20065;-73
2021/05/14 03:33:44;;;;;;;6.90;2.78;;;;;;;;;;4980237;28;20027;-73
2021/05/14 03:36:10;;;;;;;10.77;2.70;;;;;;;;;;4977953;28;20041;-73
2021/05/14 03:38:36;;;;;;;6.47;2.50;;;;;;;;;;4990875;28;20361;-73
2021/05/14 03:41:04;;;;;;;6.70;2.60;;;;;;;;;;4994271;28;20077;-73
2021/05/14 03:43:32;;;;;;;6.95;2.50;;;;;;;;;;4985812;28;20055;-73
2021/05/14 03:45:58;;;;;;;11.98;2.90;;;;;;;;;;4977369;28;20512;-73
2021/05/14 03:48:25;;;;;;;7.40;2.60;;;;;;;;;;4991484;28;20045;-72
2021/05/14 03:50:52;;;;;;;12.98;3.58;;;;;;;;;;4989626;28;20026;-72
2021/05/14 03:53:19;;;;;;;8.82;3.47;;;;;;;;;;4988006;28;20038;-73
2021/05/14 03:55:45;;;;;;;12.40;3.13;;;;;;;;;;4997868;28;20121;-73
2021/05/14 03:58:12;;;;;;;8.68;3.15;;;;;;;;;;4995163;28;20028;-73
2021/05/14 04:00:38;;;;;;;14.38;2.65;;;;;;;;;;4988491;28;20029;-72
2021/05/14 04:03:04;;;;;;;9.98;2.90;;;;;;;;;;4984299;28;20027;-72
2021/05/14 04:05:30;;;;;;;12.13;2.72;;;;;;;;;;4985907;28;20150;-72
2021/05/14 04:07:56;;;;;;;8.00;2.60;;;;;;;;;;4985241;28;20018;-73
2021/05/14 04:16:06;;;;;;;5.45;2.50;;;;;;;;;;4976245;28;20461;-72
2021/05/14 04:18:33;;;;;;;10.38;5.72;;;;;;;;;;4984750;28;20019;-74
2021/05/14 04:20:59;;;;;;;11.52;5.00;;;;;;;;;;4984934;28;20026;-73
2021/05/14 04:23:25;;;;;;;9.98;3.30;;;;;;;;;;4982849;28;20022;-73
2021/05/14 04:25:51;;;;;;;11.13;3.00;;;;;;;;;;4983239;28;20023;-74
2021/05/14 04:28:17;;;;;;;6.28;2.92;;;;;;;;;;4982469;28;20381;-72
2021/05/14 04:30:45;;;;;;;6.03;2.50;;;;;;;;;;4993185;28;20581;-73
2021/05/14 04:33:11;;;;;;;6.93;2.20;;;;;;;;;;4985780;28;20425;-71
2021/05/14 04:35:39;;;;;;;5.75;2.40;;;;;;;;;;4984071;28;20114;-71
2021/05/14 04:38:05;;;;;;;6.45;2.50;;;;;;;;;;4979140;28;20036;-73
2021/05/14 04:40:34;;;;;;;6.63;2.38;;;;;;;;;;4992797;28;20062;-74
2021/05/14 04:43:01;;;;;;;9.10;2.40;;;;;;;;;;4990470;28;20371;-73
2021/05/14 04:45:27;;;;;;;12.60;3.03;;;;;;;;;;4993458;28;20030;-72
2021/05/14 04:47:53;;;;;;;10.43;3.22;;;;;;;;;;4994562;28;20125;-74
2021/05/14 04:50:19;;;;;;;10.55;3.20;;;;;;;;;;4988373;28;20034;-73
2021/05/14 04:52:45;;;;;;;12.40;3.28;;;;;;;;;;4991825;28;20058;-74
2021/05/14 04:55:12;;;;;;;14.10;3.88;;;;;;;;;;4989278;28;20468;-74
2021/05/14 04:57:38;;;;;;;18.42;4.95;;;;;;;;;;4986447;28;20055;-74
2021/05/14 05:00:07;;;;;;;13.32;3.42;;;;;;;;;;5000454;28;20500;-73
2021/05/14 05:02:41;;;;;;;13.40;3.47;;;;;;;;;;4983241;28;20852;-72
2021/05/14 05:05:07;;;;;;;10.98;3.03;;;;;;;;;;4994408;28;20038;-70
2021/05/14 05:07:35;;;;;;;14.77;3.50;;;;;;;;;;4985597;28;20027;-73
2021/05/14 05:10:01;;;;;;;11.13;3.10;;;;;;;;;;4992438;28;20033;-78
2021/05/14 05:12:33;;;;;;;6.68;2.80;;;;;;;;;;4989444;28;20082;-73
2021/05/14 05:14:59;;;;;;;10.73;3.08;;;;;;;;;;5000966;28;20045;-72
2021/05/14 05:17:25;;;;;;;7.85;3.05;;;;;;;;;;4997410;28;20046;-74
2021/05/14 05:19:52;;;;;;;9.48;3.08;;;;;;;;;;5003346;28;20021;-74
2021/05/14 05:22:18;;;;;;;12.00;3.30;;;;;;;;;;5000778;28;20022;-73
2021/05/14 05:24:44;;;;;;;11.90;3.65;;;;;;;;;;4991708;28;20496;-73
2021/05/14 05:27:14;;;;;;;18.08;4.00;;;;;;;;;;4996667;28;20399;-74
2021/05/14 05:29:43;;;;;;;12.52;3.45;;;;;;;;;;4982234;28;20030;-73
2021/05/14 05:32:09;;;;;;;18.35;4.20;;;;;;;;;;4986002;28;20023;-73
2021/05/14 05:34:35;;;;;;;16.55;3.90;;;;;;;;;;4998345;28;20026;-73
2021/05/14 05:37:01;;;;;;;26.75;4.35;;;;;;;;;;4993040;28;20105;-73
2021/05/14 05:39:27;;;;;;;10.88;3.38;;;;;;;;;;4985297;28;20026;-73
2021/05/14 05:41:53;;;;;;;12.85;3.67;;;;;;;;;;4981863;28;20046;-74
2021/05/14 05:44:20;;;;;;;15.05;3.30;;;;;;;;;;4984645;28;20047;-74
2021/05/14 05:46:46;;;;;;;22.30;4.05;;;;;;;;;;4985207;28;20078;-76
2021/05/14 05:49:12;;;;;;;17.55;3.67;;;;;;;;;;4990945;28;20037;-76
2021/05/14 05:51:38;;;;;;;24.42;4.53;;;;;;;;;;4998539;28;20076;-73
2021/05/14 05:54:05;;;;;;;17.25;3.67;;;;;;;;;;4980316;28;20029;-71
2021/05/14 05:56:38;;;;;;;13.82;4.00;;;;;;;;;;4994237;28;20153;-74
2021/05/14 05:59:06;;;;;;;20.00;3.92;;;;;;;;;;5009217;28;20076;-75
2021/05/14 06:01:33;;;;;;;8.13;2.92;;;;;;;;;;5008607;28;20037;-71
2021/05/14 06:03:59;;;;;;;17.48;3.88;;;;;;;;;;5014247;28;20587;-72
2021/05/14 06:06:25;;;;;;;8.98;2.83;;;;;;;;;;4995312;28;20034;-76
2021/05/14 06:08:51;;;;;;;12.70;2.88;;;;;;;;;;4990522;28;20022;-76
2021/05/14 06:11:17;;;;;;;17.65;3.53;;;;;;;;;;4988983;28;20023;-72
2021/05/14 06:13:43;;;;;;;33.17;4.70;;;;;;;;;;4995821;28;20035;-74
2021/05/14 06:16:09;;;;;;;11.27;3.08;;;;;;;;;;4985442;28;20073;-75
2021/05/14 06:18:38;;;;;;;21.27;12.68;;;;;;;;;;4985053;28;20055;-75
2021/05/14 06:21:06;;;;;;;16.85;3.85;;;;;;;;;;4993042;28;20018;-76
2021/05/14 06:23:33;;;;;;;13.23;3.35;;;;;;;;;;4987798;28;20120;-73
2021/05/14 06:25:59;;;;;;;6.82;2.60;;;;;;;;;;4990861;28;20030;-75
2021/05/14 06:28:29;;;;;;;16.33;3.30;;;;;;;;;;5002337;28;20022;-76
2021/05/14 06:31:03;;;;;;;16.00;2.92;;;;;;;;;;4989868;28;20030;-76
2021/05/14 06:33:29;;;;;;;8.10;2.40;;;;;;;;;;4989079;28;20027;-74
2021/05/14 06:36:00;;;;;;;12.77;5.75;;;;;;;;;;4990053;28;20042;-72
2021/05/14 06:38:26;;;;;;;9.18;3.40;;;;;;;;;;4977292;28;20027;-75
2021/05/14 06:40:53;;;;;;;10.75;3.30;;;;;;;;;;4990885;28;20029;-75
2021/05/14 06:43:19;;;;;;;7.75;2.60;;;;;;;;;;4994319;28;20045;-75
2021/05/14 06:45:46;;;;;;;10.90;2.78;;;;;;;;;;4989633;28;20449;-73
2021/05/14 06:48:14;;;;;;;15.85;3.50;;;;;;;;;;4987787;28;20054;-73
2021/05/14 06:50:41;;;;;;;10.35;3.20;;;;;;;;;;4994827;28;20038;-77
2021/05/14 06:53:07;;;;;;;14.32;3.10;;;;;;;;;;4993476;28;20054;-74
2021/05/14 06:55:34;;;;;;;6.50;2.60;;;;;;;;;;4988841;28;20026;-74
2021/05/14 06:58:00;;;;;;;14.88;2.55;;;;;;;;;;4993478;28;20026;-75
2021/05/14 07:00:26;;;;;;;11.07;2.15;;;;;;;;;;4986021;28;20367;-72
2021/05/14 07:02:55;;;;;;;8.20;2.58;;;;;;;;;;4977279;28;20520;-73
2021/05/14 07:05:21;;;;;;;6.10;2.75;;;;;;;;;;4980974;28;20023;-74
2021/05/14 07:07:48;;;;;;;6.35;2.50;;;;;;;;;;4979981;28;20540;-74
2021/05/14 07:10:14;;;;;;;7.03;2.50;;;;;;;;;;4982083;28;20035;-74
2021/05/14 07:12:40;;;;;;;10.35;2.60;;;;;;;;;;4985334;28;20037;-75
2021/05/14 07:15:08;;;;;;;4.78;2.20;;;;;;;;;;4987800;28;20325;-74
2021/05/14 07:17:34;;;;;;;4.57;1.95;;;;;;;;;;4989089;28;20046;-72
2021/05/14 07:20:02;;;;;;;4.30;1.67;;;;;;;;;;4991675;28;20085;-74
2021/05/14 07:22:28;;;;;;;3.97;2.10;;;;;;;;;;4986636;28;20039;-77
2021/05/14 07:24:56;;;;;;;6.72;2.20;;;;;;;;;;5004198;28;20022;-77
2021/05/14 07:27:22;;;;;;;9.05;2.40;;;;;;;;;;4991491;28;20066;-76
2021/05/14 07:29:48;;;;;;;5.20;1.80;;;;;;;;;;4985592;28;20027;-74
2021/05/14 07:32:14;;;;;;;9.02;2.42;;;;;;;;;;4982424;28;20397;-75
2021/05/14 07:34:40;;;;;;;5.65;2.35;;;;;;;;;;4997104;28;20484;-82
2021/05/14 07:37:07;;;;;;;3.25;1.73;;;;;;;;;;4986179;28;20037;-80
2021/05/14 07:39:35;;;;;;;2.38;1.60;;;;;;;;;;4986999;28;20026;-75
2021/05/14 07:42:04;;;;;;;4.85;1.83;;;;;;;;;;4981103;28;20077;-75
2021/05/14 07:44:30;;;;;;;4.65;1.52;;;;;;;;;;4987273;28;20047;-76
2021/05/14 07:46:56;;;;;;;6.38;1.50;;;;;;;;;;4993568;28;20496;-75
2021/05/14 07:49:22;;;;;;;3.22;1.85;;;;;;;;;;4987866;28;20508;-70
2021/05/14 07:51:50;;;;;;;4.65;1.77;;;;;;;;;;5000156;28;20488;-73
2021/05/14 07:54:35;;;;;;;6.55;4.03;;;;;;;;;;4986499;28;20023;-76
2021/05/14 07:57:01;;;;;;;4.32;2.00;;;;;;;;;;4986748;28;20097;-74
2021/05/14 07:59:27;;;;;;;3.60;1.75;;;;;;;;;;4998845;28;20053;-73
2021/05/14 08:01:55;;;;;;;4.88;1.98;;;;;;;;;;4987407;28;20104;-73
2021/05/14 08:04:22;;;;;;;5.22;1.95;;;;;;;;;;4987758;28;20500;-74
2021/05/14 08:06:49;;;;;;;7.47;2.40;;;;;;;;;;4990017;28;20034;-74
2021/05/14 08:09:23;;;;;;;5.55;2.70;;;;;;;;;;4990813;28;20027;-74
2021/05/14 08:11:50;;;;;;;9.00;3.25;;;;;;;;;;4984667;28;20046;-76
2021/05/14 08:14:16;;;;;;;7.43;2.83;;;;;;;;;;4988704;28;20037;-75
2021/05/14 08:16:42;;;;;;;8.60;2.72;;;;;;;;;;4992735;28;20038;-75
2021/05/14 08:19:11;;;;;;;3.65;1.80;;;;;;;;;;4987979;28;20146;-75
2021/05/14 08:21:38;;;;;;;6.97;1.80;;;;;;;;;;4983026;28;20437;-76
2021/05/14 08:24:04;;;;;;;4.93;1.80;;;;;;;;;;4987096;28;20080;-74
2021/05/14 08:26:31;;;;;;;7.03;2.00;;;;;;;;;;4992887;28;20512;-76
2021/05/14 08:28:57;;;;;;;3.72;2.03;;;;;;;;;;4993964;28;20060;-76
2021/05/14 08:31:25;;;;;;;8.30;2.00;;;;;;;;;;4988184;28;20023;-74
2021/05/14 08:34:00;;;;;;;5.28;1.98;;;;;;;;;;4988542;28;20163;-75
2021/05/14 08:36:27;;;;;;;4.07;2.00;;;;;;;;;;5000121;28;20049;-83
2021/05/14 08:38:53;;;;;;;7.22;1.90;;;;;;;;;;4996966;28;20027;-76
2021/05/14 08:41:20;;;;;;;6.32;1.85;;;;;;;;;;4998006;28;20037;-81
2021/05/14 08:43:47;;;;;;;5.95;2.35;;;;;;;;;;4989584;28;20061;-87
2021/05/14 08:46:14;;;;;;;6.97;2.17;;;;;;;;;;4986887;28;20022;-74
2021/05/14 08:48:41;;;;;;;4.97;2.05;;;;;;;;;;4979760;28;20031;-75
2021/05/14 08:51:11;;;;;;;2.80;1.48;;;;;;;;;;4986531;28;20031;-70
2021/05/14 08:53:38;;;;;;;5.22;1.90;;;;;;;;;;4987804;28;20577;-71
2021/05/14 08:56:04;;;;;;;6.13;2.25;;;;;;;;;;4989546;28;20034;-71
2021/05/14 08:58:30;;;;;;;6.53;2.33;;;;;;;;;;4990639;28;20051;-70
2021/05/14 09:00:56;;;;;;;11.90;2.70;;;;;;;;;;4985453;28;20019;-81
2021/05/14 09:03:23;;;;;;;4.93;1.95;;;;;;;;;;4987305;28;20048;-86
2021/05/14 09:05:50;;;;;;;4.10;1.60;;;;;;;;;;4983816;28;20037;-75
2021/05/14 09:08:29;;;;;;;4.53;1.80;;;;;;;;;;4991323;28;20034;-72
2021/05/14 09:10:58;;;;;;;7.97;2.00;;;;;;;;;;4988185;28;20122;-73
2021/05/14 09:13:35;;;;;;;3.80;1.90;;;;;;;;;;4990992;28;20034;-72
2021/05/14 09:16:01;;;;;;;3.08;1.98;;;;;;;;;;4991087;28;20400;-73
2021/05/14 09:18:28;;;;;;;4.00;1.88;;;;;;;;;;4992759;28;20054;-73
2021/05/14 09:20:55;;;;;;;8.02;2.13;;;;;;;;;;4993830;28;20029;-73
2021/05/14 09:23:21;;;;;;;7.15;1.70;;;;;;;;;;4995352;28;20053;-73
2021/05/14 09:25:51;;;;;;;3.17;1.80;;;;;;;;;;4993874;28;20027;-77
2021/05/14 09:28:26;;;;;;;4.53;2.00;;;;;;;;;;4982431;28;20126;-74
2021/05/14 09:31:28;;;;;;;4.57;2.20;;;;;;;;;;4984061;28;20034;-77
2021/05/14 09:33:55;;;;;;;5.60;2.20;;;;;;;;;;4920024;29;20044;-75
2021/05/14 09:36:23;;;;;;;3.42;1.75;;;;;;;;;;4912143;29;20056;-75
2021/05/14 09:38:52;;;;;;;4.50;2.15;;;;;;;;;;4911303;29;20107;-75
2021/05/14 09:41:27;;;;;;;5.65;2.15;;;;;;;;;;4915898;29;20051;-75
2021/05/14 09:44:10;;;;;;;8.60;2.40;;;;;;;;;;4913520;29;20641;-74
2021/05/14 09:46:42;;;;;;;7.30;2.03;;;;;;;;;;4908318;29;20143;-84
2021/05/14 09:49:10;;;;;;;3.42;2.00;;;;;;;;;;4912761;29;20111;-83
2021/05/14 09:51:46;;;;;;;5.25;1.92;;;;;;;;;;4916634;29;20129;-83
2021/05/14 09:54:38;;;;;;;6.97;2.10;;;;;;;;;;4903767;29;20048;-85
2021/05/14 09:57:39;;;;;;;4.55;1.80;;;;;;;;;;4899381;29;20056;-74
2021/05/14 10:00:08;;;;;;;5.03;2.53;;;;;;;;;;4891501;29;20052;-69
2021/05/14 10:02:38;;;;;;;4.25;2.05;;;;;;;;;;4893328;29;20136;-76
2021/05/14 10:05:07;;;;;;;2.83;1.73;;;;;;;;;;4891588;29;20081;-83
2021/05/14 10:07:37;;;;;;;5.63;2.20;;;;;;;;;;4913160;28;20031;-78
2021/05/14 10:10:06;;;;;;;5.55;1.85;;;;;;;;;;4951046;28;20520;-75
2021/05/14 10:12:32;;;;;;;5.32;2.20;;;;;;;;;;4950241;28;20509;-80
2021/05/14 10:14:59;;;;;;;5.63;2.20;;;;;;;;;;4946208;28;20032;-76
2021/05/14 10:17:25;;;;;;;3.45;1.75;;;;;;;;;;4949030;28;20055;-80
2021/05/14 10:19:53;;;;;;;6.47;2.00;;;;;;;;;;4948968;28;20378;-75
2021/05/14 10:22:22;;;;;;;4.18;2.10;;;;;;;;;;4946432;28;20035;-75
2021/05/14 10:24:59;;;;;;;5.30;1.80;;;;;;;;;;4948319;28;20036;-78
2021/05/14 10:27:31;;;;;;;6.93;2.22;;;;;;;;;;4952707;28;20031;-77
2021/05/14 10:30:01;;;;;;;3.47;1.80;;;;;;;;;;4948924;28;20071;-79
2021/05/14 10:32:45;;;;;;;2.80;1.67;;;;;;;;;;4948530;28;20489;-75
2021/05/14 10:35:20;;;;;;;4.95;1.80;;;;;;;;;;4949497;28;20035;-78
2021/05/14 10:37:49;;;;;;;4.72;2.17;;;;;;;;;;4989649;28;20031;-81
2021/05/14 10:40:34;;;;;;;3.97;2.20;;;;;;;;;;4994220;28;20030;-78
2021/05/14 10:43:01;;;;;;;3.60;1.90;;;;;;;;;;4991757;28;20136;-75
2021/05/14 10:45:45;;;;;;;7.68;2.40;;;;;;;;;;4983672;28;20022;-86
2021/05/14 10:48:23;;;;;;;5.53;1.90;;;;;;;;;;4983792;28;20042;-85
2021/05/14 10:51:02;;;;;;;5.95;2.17;;;;;;;;;;4989086;28;20165;-77
2021/05/14 10:53:35;;;;;;;3.13;1.75;;;;;;;;;;4984797;28;20026;-80
2021/05/14 10:56:10;;;;;;;2.83;1.50;;;;;;;;;;4982303;28;20043;-74
2021/05/14 10:58:45;;;;;;;4.80;2.13;;;;;;;;;;4987386;28;20034;-70
2021/05/14 11:01:29;;;;;;;4.15;1.90;;;;;;;;;;4996546;28;20084;-69
2021/05/14 11:03:56;;;;;;;6.30;2.03;;;;;;;;;;4991885;28;20233;-70
2021/05/14 11:06:22;;;;;;;4.15;2.00;;;;;;;;;;4985469;28;20450;-70
2021/05/14 11:09:00;;;;;;;5.85;2.20;;;;;;;;;;4986033;28;20080;-71
2021/05/14 11:11:26;;;;;;;8.13;2.30;;;;;;;;;;4990060;28;20471;-70
2021/05/14 11:13:53;;;;;;;7.47;2.33;;;;;;;;;;4985650;28;20031;-71
2021/05/14 11:16:40;;;;;;;5.28;1.90;;;;;;;;;;4985383;28;20045;-70
2021/05/14 11:19:23;;;;;;;5.25;1.90;;;;;;;;;;4988132;28;20031;-76
2021/05/14 11:22:00;;;;;;;12.98;3.17;;;;;;;;;;4984993;28;20073;-81
2021/05/14 11:24:32;;;;;;;5.93;1.85;;;;;;;;;;4992430;28;20476;-80
2021/05/14 11:27:21;;;;;;;5.22;1.92;;;;;;;;;;4986910;28;20026;-83
2021/05/14 11:29:59;;;;;;;4.72;1.83;;;;;;;;;;4986690;28;20081;-77
2021/05/14 11:32:26;;;;;;;6.05;2.58;;;;;;;;;;4983996;28;20477;-75
2021/05/14 11:34:55;;;;;;;5.68;2.20;;;;;;;;;;4986108;28;20457;-75
2021/05/14 11:37:22;;;;;;;2.58;1.80;;;;;;;;;;4992108;28;20079;-78
2021/05/14 11:39:48;;;;;;;5.57;1.95;;;;;;;;;;4987854;28;20029;-80
2021/05/14 11:42:18;;;;;;;5.53;2.10;;;;;;;;;;4989316;28;20103;-75
2021/05/14 11:45:00;;;;;;;4.40;1.90;;;;;;;;;;4995505;28;20027;-75
2021/05/14 11:47:27;;;;;;;3.20;1.70;;;;;;;;;;4988397;28;20036;-80
2021/05/14 11:49:54;;;;;;;3.05;1.90;;;;;;;;;;4987733;28;20441;-76
2021/05/14 11:52:35;;;;;;;2.88;1.75;;;;;;;;;;4992108;28;20468;-81
2021/05/14 11:55:03;;;;;;;5.63;1.88;;;;;;;;;;4984134;28;20038;-72
2021/05/14 11:57:30;;;;;;;2.88;1.85;;;;;;;;;;4981813;28;20403;-71
2021/05/14 11:59:57;;;;;;;3.05;1.73;;;;;;;;;;4983882;28;20037;-71
2021/05/14 12:02:36;;;;;;;6.35;2.20;;;;;;;;;;4984317;28;20026;-72
2021/05/14 12:05:07;;;;;;;5.75;1.88;;;;;;;;;;4982608;28;20470;-77
2021/05/14 12:07:33;;;;;;;7.28;1.88;;;;;;;;;;4995936;28;20061;-78
2021/05/14 12:10:00;;;;;;;5.43;2.03;;;;;;;;;;4989660;28;20030;-76
2021/05/14 12:12:27;;;;;;;4.72;2.03;;;;;;;;;;5000532;28;20029;-83
2021/05/14 12:15:07;;;;;;;6.82;2.05;;;;;;;;;;4998811;28;20869;-88
2021/05/14 12:17:35;;;;;;;4.78;2.10;;;;;;;;;;5000661;28;20042;-77
2021/05/14 12:20:14;;;;;;;4.28;1.70;;;;;;;;;;5004985;28;20079;-77
2021/05/14 12:22:46;;;;;;;9.02;2.10;;;;;;;;;;4981496;28;20031;-75
2021/05/14 12:25:13;;;;;;;4.10;2.17;;;;;;;;;;4991581;28;20087;-84
2021/05/14 12:27:39;;;;;;;3.92;2.10;;;;;;;;;;4991077;28;20464;-78
2021/05/14 12:30:07;;;;;;;6.90;2.10;;;;;;;;;;4987016;28;20030;-79
2021/05/14 12:32:34;;;;;;;5.95;2.10;;;;;;;;;;4987920;28;20030;-84
2021/05/14 12:35:00;;;;;;;6.25;1.80;;;;;;;;;;4987927;28;20029;-76
2021/05/14 12:37:26;;;;;;;4.47;1.70;;;;;;;;;;4993112;28;20038;-87
2021/05/14 12:39:52;;;;;;;3.58;1.67;;;;;;;;;;4996162;28;20351;-87
2021/05/14 12:42:43;;;;;;;6.65;2.00;;;;;;;;;;4992899;28;20479;-88
2021/05/14 12:45:10;;;;;;;3.20;1.45;;;;;;;;;;5027463;28;20045;-79
2021/05/14 12:47:36;;;;;;;5.20;1.90;;;;;;;;;;5010257;28;20056;-80
2021/05/14 12:50:05;;;;;;;3.25;1.92;;;;;;;;;;5029709;28;20551;-79
2021/05/14 12:52:34;;;;;;;3.42;1.75;;;;;;;;;;5029009;28;20148;-77
2021/05/14 12:55:04;;;;;;;4.60;2.20;;;;;;;;;;5015547;28;20037;-78
2021/05/14 12:57:34;;;;;;;3.50;1.77;;;;;;;;;;5031304;28;20471;-85
2021/05/14 13:00:01;;;;;;;6.03;1.88;;;;;;;;;;5013517;28;20034;-81
2021/05/14 13:02:28;;;;;;;2.22;1.60;;;;;;;;;;5023758;28;20033;-86
2021/05/14 13:04:59;;;;;;;4.90;1.60;;;;;;;;;;5028867;28;20091;-71
2021/05/14 13:07:25;;;;;;;6.07;2.00;;;;;;;;;;5023722;28;20057;-76
2021/05/14 13:09:51;;;;;;;5.95;1.67;;;;;;;;;;5029300;28;20033;-77
2021/05/14 13:12:17;;;;;;;5.75;2.17;;;;;;;;;;5034474;28;20063;-76
2021/05/14 13:14:44;;;;;;;6.90;2.20;;;;;;;;;;5028361;28;20048;-77
2021/05/14 13:17:10;;;;;;;2.95;1.60;;;;;;;;;;5000552;28;20042;-76
2021/05/14 13:19:36;;;;;;;4.25;1.90;;;;;;;;;;4988739;28;20531;-77
2021/05/14 13:22:03;;;;;;;6.30;2.05;;;;;;;;;;4987399;28;20060;-85
2021/05/14 13:24:29;;;;;;;5.18;1.80;;;;;;;;;;4992380;28;20034;-83
2021/05/14 13:26:56;;;;;;;5.38;1.58;;;;;;;;;;4992138;28;20462;-78
2021/05/14 13:29:22;;;;;;;3.33;1.60;;;;;;;;;;4996408;28;20050;-75
2021/05/14 13:31:48;;;;;;;6.97;2.13;;;;;;;;;;4985165;28;20034;-78
2021/05/14 13:34:14;;;;;;;6.93;2.13;;;;;;;;;;4982931;28;20106;-76
2021/05/14 13:36:40;;;;;;;4.50;2.08;;;;;;;;;;4990906;28;20042;-75
2021/05/14 13:39:06;;;;;;;9.35;2.30;;;;;;;;;;4991665;28;20026;-78
2021/05/14 13:41:33;;;;;;;6.13;2.42;;;;;;;;;;4990147;28;20035;-77
2021/05/14 13:44:01;;;;;;;4.45;1.80;;;;;;;;;;4983489;28;20042;-78
2021/05/14 13:46:27;;;;;;;4.55;1.63;;;;;;;;;;4980385;28;20034;-79
2021/05/14 13:48:54;;;;;;;5.47;1.92;;;;;;;;;;4990528;28;20076;-78
2021/05/14 13:51:20;;;;;;;5.22;2.15;;;;;;;;;;4989522;28;20034;-77
2021/05/14 13:53:47;;;;;;;4.03;2.00;;;;;;;;;;4989633;28;20081;-77
2021/05/14 13:56:13;;;;;;;8.23;2.10;;;;;;;;;;4989683;28;20109;-76
2021/05/14 13:58:40;;;;;;;7.10;2.08;;;;;;;;;;4987575;28;20030;-78
2021/05/14 14:01:06;;;;;;;3.70;2.20;;;;;;;;;;4984695;28;20028;-76
2021/05/14 14:03:34;;;;;;;4.82;2.00;;;;;;;;;;5001837;28;20416;-77
2021/05/14 14:06:00;;;;;;;3.72;1.75;;;;;;;;;;4987833;28;20081;-81
2021/05/14 14:08:26;;;;;;;17.55;4.57;;;;;;;;;;4981087;28;20027;-80
2021/05/14 14:10:53;;;;;;;6.72;2.65;;;;;;;;;;4985463;28;20110;-77
2021/05/14 14:13:20;;;;;;;7.78;2.50;;;;;;;;;;4978862;28;20038;-76
2021/05/14 14:15:46;;;;;;;5.45;2.40;;;;;;;;;;4982214;28;20056;-76
2021/05/14 14:18:12;;;;;;;5.70;2.13;;;;;;;;;;4986197;28;20513;-76
2021/05/14 14:20:42;;;;;;;5.28;2.00;;;;;;;;;;4990048;28;20030;-81
2021/05/14 14:23:09;;;;;;;6.82;2.13;;;;;;;;;;4984628;28;20023;-77
2021/05/14 14:25:35;;;;;;;7.95;2.67;;;;;;;;;;4990997;28;20057;-77
2021/05/14 14:28:02;;;;;;;5.05;2.17;;;;;;;;;;4995069;28;20392;-79
2021/05/14 14:30:28;;;;;;;6.43;2.22;;;;;;;;;;4989056;28;20033;-78
2021/05/14 14:32:54;;;;;;;8.05;3.30;;;;;;;;;;4993726;28;20034;-76
2021/05/14 14:35:20;;;;;;;4.90;2.33;;;;;;;;;;4991803;28;20479;-77
2021/05/14 14:37:48;;;;;;;6.43;2.20;;;;;;;;;;4985491;28;20054;-77
2021/05/14 14:43:01;;;;;;;3.95;1.95;;;;;;;;;;4994531;28;20522;-75
2021/05/14 14:45:27;;;;;;;3.75;1.98;;;;;;;;;;4992247;28;20054;-83
2021/05/14 14:47:54;;;;;;;4.20;2.10;;;;;;;;;;4989759;28;20101;-75
2021/05/14 14:50:20;;;;;;;3.47;2.05;;;;;;;;;;4992351;28;20018;-83
2021/05/14 14:52:46;;;;;;;5.40;2.05;;;;;;;;;;4988385;28;20031;-82
2021/05/14 14:58:17;;;;;;;8.15;2.20;;;;;;;;;;5059017;23;20117;-77